createdAt,value
2017-05-30T00:01:28.991Z,66.60
2017-05-30T00:03:56.420Z,66.90
2017-05-30T00:06:23.714Z,67.10
2017-05-30T00:08:51.126Z,67.70
2017-05-30T00:11:18.466Z,68.10
2017-05-30T00:13:45.848Z,68.00
2017-05-30T00:16:13.172Z,68.00
2017-05-30T00:18:40.491Z,67.70
2017-05-30T00:21:07.805Z,67.60
2017-05-30T00:23:35.162Z,67.80
2017-05-30T00:26:02.613Z,68.00
2017-05-30T00:28:29.684Z,68.00
2017-05-30T00:30:56.975Z,67.80
2017-05-30T00:33:24.334Z,68.40
2017-05-30T00:35:51.629Z,68.80
2017-05-30T00:38:18.921Z,68.60
2017-05-30T00:40:46.345Z,68.50
2017-05-30T00:43:13.650Z,68.10
2017-05-30T00:45:40.955Z,68.10
2017-05-30T00:48:07.902Z,68.10
2017-05-30T00:50:35.242Z,68.10
2017-05-30T00:53:02.638Z,68.20
2017-05-30T00:55:29.967Z,68.60
2017-05-30T00:57:57.255Z,68.50
2017-05-30T01:00:24.538Z,68.50
2017-05-30T01:02:51.481Z,68.50
2017-05-30T01:05:18.770Z,68.40
2017-05-30T01:07:45.659Z,68.40
2017-05-30T01:10:13.011Z,68.30
2017-05-30T01:12:40.299Z,68.60
2017-05-30T01:15:07.586Z,68.80
2017-05-30T01:17:34.951Z,68.80
2017-05-30T01:20:02.667Z,68.80
2017-05-30T01:22:29.994Z,68.50
2017-05-30T01:24:57.005Z,68.50
2017-05-30T01:27:24.369Z,67.90
2017-05-30T01:29:51.718Z,67.90
2017-05-30T01:32:19.073Z,67.30
2017-05-30T01:34:46.447Z,67.50
2017-05-30T01:37:13.798Z,67.40
2017-05-30T01:39:40.757Z,67.40
2017-05-30T01:42:08.047Z,67.30
2017-05-30T01:44:35.352Z,67.10
2017-05-30T01:47:02.689Z,67.30
2017-05-30T01:49:30.064Z,67.40
2017-05-30T01:51:57.361Z,66.60
2017-05-30T01:54:24.681Z,66.80
2017-05-30T01:56:52.037Z,67.00
2017-05-30T01:59:19.355Z,66.30
2017-05-30T02:01:46.298Z,66.30
2017-05-30T02:04:13.682Z,66.40
2017-05-30T02:06:41.037Z,65.80
2017-05-30T02:09:08.395Z,66.00
2017-05-30T02:11:35.761Z,65.60
2017-05-30T02:14:03.118Z,66.00
2017-05-30T02:16:30.471Z,66.10
2017-05-30T02:18:57.775Z,66.70
2017-05-30T02:21:25.107Z,66.30
2017-05-30T02:23:52.394Z,66.70
2017-05-30T02:26:19.679Z,66.70
2017-05-30T02:28:46.999Z,67.40
2017-05-30T02:31:14.289Z,68.20
2017-05-30T02:33:41.590Z,68.50
2017-05-30T02:36:08.945Z,68.70
2017-05-30T02:38:36.251Z,68.80
2017-05-30T02:41:03.614Z,69.00
2017-05-30T02:43:30.960Z,69.40
2017-05-30T02:45:58.238Z,69.30
2017-05-30T02:48:25.538Z,69.20
2017-05-30T02:50:52.885Z,68.90
2017-05-30T02:53:19.887Z,68.90
2017-05-30T02:55:47.242Z,69.60
2017-05-30T02:58:14.285Z,69.60
2017-05-30T03:00:41.589Z,70.00
2017-05-30T03:03:08.474Z,70.00
2017-05-30T03:05:35.801Z,70.10
2017-05-30T03:08:03.101Z,69.70
2017-05-30T03:10:30.449Z,69.00
2017-05-30T03:12:57.778Z,68.90
2017-05-30T03:15:25.170Z,68.60
2017-05-30T03:17:52.467Z,68.60
2017-05-30T03:20:19.803Z,68.80
2017-05-30T03:22:46.690Z,68.80
2017-05-30T03:25:14.082Z,68.60
2017-05-30T03:27:41.438Z,68.50
2017-05-30T03:30:08.400Z,68.50
2017-05-30T03:32:35.693Z,68.40
2017-05-30T03:35:03.017Z,68.50
2017-05-30T03:37:29.951Z,68.50
2017-05-30T03:39:57.295Z,68.50
2017-05-30T03:42:24.621Z,68.40
2017-05-30T03:44:51.998Z,68.60
2017-05-30T03:47:18.897Z,68.60
2017-05-30T03:49:46.226Z,68.40
2017-05-30T03:52:13.562Z,68.10
2017-05-30T03:54:40.846Z,68.30
2017-05-30T03:57:08.266Z,68.70
2017-05-30T03:59:35.634Z,68.80
2017-05-30T04:02:02.926Z,68.50
2017-05-30T04:04:30.439Z,68.50
2017-05-30T04:06:57.806Z,68.20
2017-05-30T04:09:25.161Z,68.10
2017-05-30T04:11:52.487Z,67.90
2017-05-30T04:14:19.794Z,67.90
2017-05-30T04:16:47.122Z,67.80
2017-05-30T04:19:14.063Z,67.80
2017-05-30T04:21:41.016Z,67.40
2017-05-30T04:24:08.420Z,67.30
2017-05-30T04:26:35.847Z,67.70
2017-05-30T04:29:03.190Z,68.00
2017-05-30T04:31:30.542Z,68.10
2017-05-30T04:33:57.902Z,67.90
2017-05-30T04:36:25.326Z,67.80
2017-05-30T04:38:52.211Z,67.80
2017-05-30T04:41:19.542Z,67.50
2017-05-30T04:43:46.831Z,67.20
2017-05-30T04:46:14.138Z,66.90
2017-05-30T04:48:41.530Z,66.90
2017-05-30T04:51:08.822Z,66.50
2017-05-30T04:53:36.138Z,66.60
2017-05-30T04:56:03.507Z,66.50
2017-05-30T04:58:30.398Z,66.50
2017-05-30T05:00:57.789Z,66.00
2017-05-30T05:03:25.142Z,65.80
2017-05-30T05:05:52.605Z,66.20
2017-05-30T05:08:19.962Z,66.20
2017-05-30T05:10:47.005Z,66.10
2017-05-30T05:13:14.363Z,66.90
2017-05-30T05:15:41.692Z,66.60
2017-05-30T05:18:09.023Z,66.40
2017-05-30T05:20:36.301Z,66.30
2017-05-30T05:23:03.586Z,66.20
2017-05-30T05:25:30.946Z,66.60
2017-05-30T05:27:58.302Z,66.70
2017-05-30T05:30:25.658Z,66.60
2017-05-30T05:32:53.086Z,65.90
2017-05-30T05:35:20.477Z,65.50
2017-05-30T05:37:47.415Z,65.50
2017-05-30T05:40:14.783Z,64.40
2017-05-30T05:42:42.077Z,64.80
2017-05-30T05:45:09.406Z,65.20
2017-05-30T05:47:36.894Z,65.40
2017-05-30T05:50:04.454Z,65.90
2017-05-30T05:52:31.854Z,65.90
2017-05-30T05:54:59.159Z,65.50
2017-05-30T05:57:26.445Z,65.50
2017-05-30T05:59:53.415Z,65.50
2017-05-30T06:02:20.766Z,65.00
2017-05-30T06:04:48.050Z,65.10
2017-05-30T06:07:15.474Z,65.20
2017-05-30T06:09:42.811Z,65.30
2017-05-30T06:12:10.186Z,66.00
2017-05-30T06:14:37.123Z,65.90
2017-05-30T06:17:04.494Z,66.40
2017-05-30T06:19:31.383Z,66.40
2017-05-30T06:21:58.705Z,66.30
2017-05-30T06:24:25.999Z,66.30
2017-05-30T06:26:53.009Z,66.30
2017-05-30T06:29:20.333Z,65.80
2017-05-30T06:31:47.711Z,65.80
2017-05-30T06:34:15.063Z,65.70
2017-05-30T06:36:42.422Z,65.90
2017-05-30T06:39:09.776Z,65.20
2017-05-30T06:41:37.169Z,65.20
2017-05-30T06:44:04.535Z,65.40
2017-05-30T06:46:31.841Z,65.50
2017-05-30T06:48:59.197Z,65.50
2017-05-30T06:51:26.570Z,65.40
2017-05-30T06:53:53.872Z,65.20
2017-05-30T06:56:21.171Z,65.50
2017-05-30T06:58:48.530Z,66.00
2017-05-30T07:01:15.426Z,66.00
2017-05-30T07:03:42.417Z,66.70
2017-05-30T07:06:09.790Z,66.80
2017-05-30T07:08:37.082Z,66.90
2017-05-30T07:11:04.366Z,66.20
2017-05-30T07:13:31.739Z,66.50
2017-05-30T07:15:59.042Z,66.30
2017-05-30T07:18:26.384Z,66.40
2017-05-30T07:20:53.829Z,66.30
2017-05-30T07:23:21.182Z,66.50
2017-05-30T07:25:48.540Z,66.70
2017-05-30T07:28:15.579Z,66.70
2017-05-30T07:30:42.948Z,66.70
2017-05-30T07:33:10.304Z,66.70
2017-05-30T07:35:37.666Z,66.40
2017-05-30T07:38:04.977Z,66.00
2017-05-30T07:40:32.265Z,66.00
2017-05-30T07:42:59.718Z,66.50
2017-05-30T07:45:27.077Z,66.20
2017-05-30T07:47:54.386Z,66.60
2017-05-30T07:50:21.759Z,66.60
2017-05-30T07:52:49.150Z,66.70
2017-05-30T07:55:16.093Z,66.70
2017-05-30T07:57:43.450Z,67.60
2017-05-30T08:00:11.201Z,67.60
2017-05-30T08:02:38.493Z,67.50
2017-05-30T08:05:05.839Z,67.30
2017-05-30T08:10:05.601Z,67.50
2017-05-30T08:12:32.899Z,67.50
2017-05-30T08:15:00.214Z,67.50
2017-05-30T08:17:27.630Z,66.90
2017-05-30T08:19:54.978Z,66.60
2017-05-30T08:22:22.259Z,66.50
2017-05-30T08:24:49.606Z,65.90
2017-05-30T08:27:16.908Z,65.80
2017-05-30T08:29:44.197Z,65.80
2017-05-30T08:32:11.561Z,65.50
2017-05-30T08:34:38.853Z,65.50
2017-05-30T08:37:06.137Z,65.60
2017-05-30T08:39:33.475Z,65.60
2017-05-30T08:42:00.483Z,65.60
2017-05-30T08:44:27.409Z,65.50
2017-05-30T08:46:54.738Z,66.10
2017-05-30T08:49:22.035Z,66.60
2017-05-30T08:51:49.383Z,66.10
2017-05-30T08:54:16.738Z,66.10
2017-05-30T08:56:44.086Z,66.20
2017-05-30T08:59:11.389Z,66.60
2017-05-30T09:01:38.807Z,66.40
2017-05-30T09:04:05.777Z,66.40
2017-05-30T09:06:33.062Z,65.70
2017-05-30T09:09:00.397Z,64.80
2017-05-30T09:11:27.714Z,65.90
2017-05-30T09:13:54.661Z,65.90
2017-05-30T09:16:22.015Z,65.10
2017-05-30T09:18:49.370Z,65.70
2017-05-30T09:21:16.732Z,66.10
2017-05-30T09:23:44.082Z,65.90
2017-05-30T09:26:11.366Z,65.70
2017-05-30T09:28:38.653Z,65.20
2017-05-30T09:31:06.046Z,65.00
2017-05-30T09:33:33.346Z,64.50
2017-05-30T09:36:00.339Z,64.50
2017-05-30T09:38:27.695Z,63.40
2017-05-30T09:40:55.101Z,63.20
2017-05-30T09:43:21.990Z,63.20
2017-05-30T09:45:49.366Z,62.80
2017-05-30T09:48:16.720Z,62.80
2017-05-30T09:50:44.017Z,62.40
2017-05-30T09:53:11.333Z,61.90
2017-05-30T09:55:38.305Z,61.90
2017-05-30T09:58:05.589Z,61.10
2017-05-30T10:00:32.887Z,61.00
2017-05-30T10:03:00.250Z,61.00
2017-05-30T10:05:27.622Z,60.60
2017-05-30T10:07:54.909Z,59.90
2017-05-30T10:10:22.306Z,60.00
2017-05-30T10:12:49.708Z,59.40
2017-05-30T10:15:17.035Z,59.40
2017-05-30T10:17:44.385Z,58.80
2017-05-30T10:20:11.758Z,59.10
2017-05-30T10:22:39.054Z,58.90
2017-05-30T10:25:06.379Z,58.50
2017-05-30T10:27:33.906Z,57.40
2017-05-30T10:30:01.407Z,57.70
2017-05-30T10:32:28.408Z,57.70
2017-05-30T10:34:55.310Z,59.00
2017-05-30T10:37:22.598Z,58.60
2017-05-30T10:39:49.974Z,58.60
2017-05-30T10:42:17.331Z,58.50
2017-05-30T10:44:44.687Z,58.00
2017-05-30T10:47:12.016Z,57.80
2017-05-30T10:49:39.394Z,57.40
2017-05-30T10:52:06.690Z,58.00
2017-05-30T10:54:34.066Z,59.60
2017-05-30T10:57:01.374Z,67.30
2017-05-30T10:59:28.719Z,72.30
2017-05-30T11:01:56.078Z,76.70
2017-05-30T11:04:23.366Z,75.00
2017-05-30T11:06:50.650Z,80.10
2017-05-30T11:09:18.045Z,81.20
2017-05-30T11:11:45.353Z,81.60
2017-05-30T11:14:12.654Z,80.80
2017-05-30T11:16:40.014Z,83.30
2017-05-30T11:19:06.909Z,83.30
2017-05-30T11:21:33.894Z,86.40
2017-05-30T11:24:01.254Z,87.80
2017-05-30T11:26:28.545Z,87.50
2017-05-30T11:28:55.901Z,86.20
2017-05-30T11:31:23.226Z,86.40
2017-05-30T11:33:50.700Z,86.80
2017-05-30T11:36:17.634Z,86.80
2017-05-30T11:38:44.676Z,84.60
2017-05-30T11:41:11.565Z,86.10
2017-05-30T11:43:38.870Z,82.80
2017-05-30T11:46:05.822Z,82.80
2017-05-30T11:48:33.182Z,86.70
2017-05-30T11:51:00.477Z,86.10
2017-05-30T11:53:27.819Z,86.00
2017-05-30T11:55:55.178Z,84.70
2017-05-30T11:58:22.478Z,82.90
2017-05-30T12:00:49.418Z,82.90
2017-05-30T12:03:16.814Z,84.00
2017-05-30T12:05:44.158Z,84.30
2017-05-30T12:08:11.511Z,82.10
2017-05-30T12:10:38.798Z,83.40
2017-05-30T12:13:06.130Z,83.90
2017-05-30T12:15:33.483Z,84.00
2017-05-30T12:18:00.375Z,84.00
2017-05-30T12:20:27.660Z,83.30
2017-05-30T12:22:55.033Z,82.00
2017-05-30T12:25:22.390Z,82.40
2017-05-30T12:27:49.765Z,81.90
2017-05-30T12:30:17.114Z,80.70
2017-05-30T12:32:44.494Z,81.10
2017-05-30T12:35:11.922Z,81.20
2017-05-30T12:37:39.214Z,79.90
2017-05-30T12:40:06.526Z,80.60
2017-05-30T12:42:33.480Z,80.60
2017-05-30T12:45:00.766Z,80.50
2017-05-30T12:47:28.070Z,79.80
2017-05-30T12:49:55.433Z,79.50
2017-05-30T12:52:22.785Z,78.90
2017-05-30T12:54:49.746Z,78.90
2017-05-30T12:57:17.063Z,79.70
2017-05-30T12:59:44.355Z,77.50
2017-05-30T13:02:11.333Z,77.50
2017-05-30T13:04:38.690Z,78.80
2017-05-30T13:07:05.990Z,77.20
2017-05-30T13:09:33.330Z,77.00
2017-05-30T13:12:00.725Z,77.40
2017-05-30T13:14:28.073Z,76.20
2017-05-30T13:16:55.443Z,76.90
2017-05-30T13:19:22.730Z,76.70
2017-05-30T13:21:50.020Z,76.40
2017-05-30T13:24:16.957Z,76.40
2017-05-30T13:26:44.273Z,75.20
2017-05-30T13:29:11.554Z,75.40
2017-05-30T13:31:38.874Z,74.60
2017-05-30T13:34:06.192Z,73.60
2017-05-30T13:36:33.601Z,74.20
2017-05-30T13:39:01.022Z,74.60
2017-05-30T13:41:28.385Z,74.10
2017-05-30T13:43:55.710Z,75.70
2017-05-30T13:46:23.087Z,75.50
2017-05-30T13:48:50.029Z,75.50
2017-05-30T13:51:17.394Z,74.10
2017-05-30T13:53:44.699Z,77.40
2017-05-30T13:56:11.981Z,77.10
2017-05-30T13:58:39.360Z,75.50
2017-05-30T14:01:06.720Z,75.00
2017-05-30T14:03:34.070Z,75.00
2017-05-30T14:06:01.054Z,75.00
2017-05-30T14:08:28.338Z,77.00
2017-05-30T14:10:55.722Z,74.50
2017-05-30T14:13:23.094Z,76.50
2017-05-30T14:15:50.379Z,75.50
2017-05-30T14:18:17.699Z,76.20
2017-05-30T14:20:44.641Z,76.20
2017-05-30T14:23:11.989Z,72.90
2017-05-30T14:25:39.288Z,72.30
2017-05-30T14:28:06.640Z,71.80
2017-05-30T14:30:33.985Z,71.70
2017-05-30T14:33:00.907Z,71.80
2017-05-30T14:35:27.968Z,71.10
2017-05-30T14:37:55.259Z,69.10
2017-05-30T14:40:22.572Z,68.60
2017-05-30T14:42:49.921Z,66.90
2017-05-30T14:45:16.834Z,67.00
2017-05-30T14:47:44.134Z,69.40
2017-05-30T14:50:11.486Z,68.20
2017-05-30T14:52:38.774Z,69.30
2017-05-30T14:55:05.678Z,69.30
2017-05-30T14:57:33.036Z,70.50
2017-05-30T15:00:00.355Z,70.70
2017-05-30T15:02:27.765Z,71.10
2017-05-30T15:04:55.089Z,70.70
2017-05-30T15:07:22.400Z,70.60
2017-05-30T15:09:49.290Z,70.60
2017-05-30T15:12:16.634Z,70.70
2017-05-30T15:14:44.078Z,70.60
2017-05-30T15:17:11.385Z,70.00
2017-05-30T15:19:38.726Z,69.50
2017-05-30T15:22:05.613Z,69.50
2017-05-30T15:24:32.923Z,67.40
2017-05-30T15:27:00.258Z,68.70
2017-05-30T15:29:27.157Z,68.70
2017-05-30T15:31:54.088Z,69.10
2017-05-30T15:34:21.442Z,67.90
2017-05-30T15:36:48.782Z,67.90
2017-05-30T15:39:16.070Z,66.40
2017-05-30T15:41:43.022Z,66.40
2017-05-30T15:44:10.297Z,66.40
2017-05-30T15:46:37.582Z,65.60
2017-05-30T15:49:04.909Z,65.90
2017-05-30T15:51:32.230Z,66.20
2017-05-30T15:53:59.571Z,65.80
2017-05-30T15:56:26.934Z,65.60
2017-05-30T15:58:53.854Z,65.60
2017-05-30T16:01:21.229Z,66.40
2017-05-30T16:03:48.580Z,66.40
2017-05-30T16:06:15.517Z,66.40
2017-05-30T16:08:42.801Z,66.60
2017-05-30T16:11:10.230Z,66.20
2017-05-30T16:13:37.522Z,65.60
2017-05-30T16:16:04.846Z,66.50
2017-05-30T16:18:32.241Z,65.80
2017-05-30T16:20:59.594Z,66.50
2017-05-30T16:23:26.886Z,66.50
2017-05-30T16:25:53.817Z,66.50
2017-05-30T16:28:20.801Z,66.20
2017-05-30T16:30:48.086Z,66.20
2017-05-30T16:33:15.712Z,66.80
2017-05-30T16:35:43.087Z,66.90
2017-05-30T16:38:10.369Z,66.80
2017-05-30T16:40:37.697Z,66.60
2017-05-30T16:43:05.061Z,66.20
2017-05-30T16:45:32.353Z,66.00
2017-05-30T16:47:59.756Z,63.30
2017-05-30T16:50:27.058Z,62.20
2017-05-30T16:52:53.964Z,62.10
2017-05-30T16:55:21.304Z,60.90
2017-05-30T16:57:48.673Z,61.50
2017-05-30T17:00:15.954Z,63.20
2017-05-30T17:02:43.305Z,63.40
2017-05-30T17:05:10.590Z,63.70
2017-05-30T17:07:37.880Z,63.50
2017-05-30T17:10:05.208Z,64.70
2017-05-30T17:12:32.618Z,64.80
2017-05-30T17:14:59.974Z,65.20
2017-05-30T17:17:26.912Z,65.20
2017-05-30T17:19:54.270Z,66.20
2017-05-30T17:22:21.567Z,66.80
2017-05-30T17:24:48.926Z,67.10
2017-05-30T17:27:15.923Z,67.00
2017-05-30T17:29:42.878Z,67.60
2017-05-30T17:32:10.217Z,67.00
2017-05-30T17:34:37.582Z,67.10
2017-05-30T17:37:04.958Z,67.30
2017-05-30T17:39:32.313Z,67.40
2017-05-30T17:41:59.741Z,67.90
2017-05-30T17:44:27.034Z,68.50
2017-05-30T17:46:54.397Z,68.80
2017-05-30T17:49:21.315Z,68.80
2017-05-30T17:51:48.654Z,67.80
2017-05-30T17:54:15.613Z,67.80
2017-05-30T17:56:42.969Z,68.70
2017-05-30T17:59:10.291Z,68.00
2017-05-30T18:01:37.718Z,67.70
2017-05-30T18:04:05.075Z,68.30
2017-05-30T18:06:32.358Z,67.80
2017-05-30T18:08:59.677Z,67.40
2017-05-30T18:11:26.634Z,67.40
2017-05-30T18:13:54.011Z,66.70
2017-05-30T18:16:21.442Z,66.70
2017-05-30T18:18:48.726Z,66.30
2017-05-30T18:21:16.077Z,66.40
2017-05-30T18:23:43.401Z,65.90
2017-05-30T18:26:10.777Z,65.60
2017-05-30T18:28:37.674Z,65.60
2017-05-30T18:31:04.654Z,66.10
2017-05-30T18:33:31.626Z,65.80
2017-05-30T18:35:58.926Z,65.10
2017-05-30T18:38:26.252Z,65.00
2017-05-30T18:40:53.576Z,65.30
2017-05-30T18:43:20.911Z,65.10
2017-05-30T18:45:48.250Z,65.70
2017-05-30T18:48:15.553Z,65.80
2017-05-30T18:50:42.830Z,65.80
2017-05-30T18:53:10.169Z,65.50
2017-05-30T18:55:37.537Z,66.20
2017-05-30T18:58:04.872Z,66.30
2017-05-30T19:00:31.914Z,66.30
2017-05-30T19:02:59.270Z,65.20
2017-05-30T19:05:26.631Z,65.50
2017-05-30T19:07:54.041Z,65.80
2017-05-30T19:10:21.321Z,66.00
2017-05-30T19:12:48.608Z,66.70
2017-05-30T19:15:15.942Z,66.70
2017-05-30T19:17:43.234Z,67.20
2017-05-30T19:20:11.224Z,67.50
2017-05-30T19:22:38.617Z,67.70
2017-05-30T19:25:05.533Z,67.70
2017-05-30T19:27:32.914Z,67.70
2017-05-30T19:30:00.310Z,67.50
2017-05-30T19:32:27.634Z,67.40
2017-05-30T19:34:54.917Z,67.20
2017-05-30T19:37:22.360Z,67.10
2017-05-30T19:39:49.639Z,66.70
2017-05-30T19:42:16.943Z,67.20
2017-05-30T19:44:44.320Z,67.70
2017-05-30T19:47:11.612Z,67.60
2017-05-30T19:49:38.514Z,67.60
2017-05-30T19:52:05.526Z,67.50
2017-05-30T19:54:32.818Z,67.80
2017-05-30T19:57:00.102Z,68.10
2017-05-30T19:59:27.545Z,68.30
2017-05-30T20:01:54.826Z,68.10
2017-05-30T20:04:22.115Z,68.70
2017-05-30T20:06:49.498Z,69.90
2017-05-30T20:09:16.781Z,71.20
2017-05-30T20:11:44.057Z,72.00
2017-05-30T20:14:11.409Z,72.20
2017-05-30T20:16:38.718Z,72.50
2017-05-30T20:19:06.008Z,73.00
2017-05-30T20:21:33.425Z,73.60
2017-05-30T20:24:00.790Z,73.70
2017-05-30T20:26:28.083Z,73.80
2017-05-30T20:28:55.410Z,74.10
2017-05-30T20:31:22.310Z,74.10
2017-05-30T20:33:49.598Z,73.60
2017-05-30T20:36:17.248Z,73.80
2017-05-30T20:38:44.529Z,74.40
2017-05-30T20:41:11.934Z,74.80
2017-05-30T20:43:39.259Z,75.50
2017-05-30T20:46:06.554Z,76.10
2017-05-30T20:48:33.863Z,76.00
2017-05-30T20:51:01.315Z,75.30
2017-05-30T20:53:28.603Z,74.50
2017-05-30T20:55:55.603Z,74.50
2017-05-30T20:58:22.950Z,74.40
2017-05-30T21:00:50.310Z,74.70
2017-05-30T21:03:17.613Z,74.90
2017-05-30T21:05:45.030Z,75.00
2017-05-30T21:08:12.336Z,74.90
2017-05-30T21:10:39.230Z,74.90
2017-05-30T21:13:06.715Z,74.70
2017-05-30T21:15:34.067Z,74.10
2017-05-30T21:18:01.395Z,74.30
2017-05-30T21:20:28.755Z,74.20
2017-05-30T21:22:56.034Z,74.30
2017-05-30T21:25:23.326Z,73.50
2017-05-30T21:27:50.647Z,74.10
2017-05-30T21:30:17.925Z,74.20
2017-05-30T21:32:45.326Z,74.10
2017-05-30T21:35:12.655Z,73.60
2017-05-30T21:37:40.034Z,73.60
2017-05-30T21:40:07.396Z,73.20
2017-05-30T21:42:34.753Z,73.30
2017-05-30T21:45:02.107Z,73.00
2017-05-30T21:47:29.007Z,73.00
2017-05-30T21:49:56.403Z,73.20
2017-05-30T21:52:23.763Z,73.10
2017-05-30T21:54:51.110Z,73.00
2017-05-30T21:57:18.474Z,73.10
2017-05-30T21:59:45.759Z,72.60
2017-05-30T22:02:13.116Z,72.70
2017-05-30T22:04:40.458Z,72.60
2017-05-30T22:07:07.733Z,72.50
2017-05-30T22:09:35.026Z,72.80
2017-05-30T22:12:02.366Z,72.70
2017-05-30T22:14:29.694Z,73.00
2017-05-30T22:16:56.585Z,73.00
2017-05-30T22:19:23.957Z,72.50
2017-05-30T22:21:51.327Z,72.20
2017-05-30T22:24:18.273Z,72.20
2017-05-30T22:26:45.618Z,72.70
2017-05-30T22:29:12.976Z,72.70
2017-05-30T22:31:39.927Z,72.70
2017-05-30T22:34:07.400Z,72.70
2017-05-30T22:36:34.739Z,72.90
2017-05-30T22:39:02.024Z,72.10
2017-05-30T22:41:29.380Z,72.20
2017-05-30T22:43:56.702Z,72.10
2017-05-30T22:46:24.062Z,72.20
2017-05-30T22:48:51.098Z,72.20
2017-05-30T22:51:18.410Z,71.90
2017-05-30T22:53:45.723Z,71.80
2017-05-30T22:56:13.112Z,71.90
2017-05-30T22:58:40.018Z,71.90
2017-05-30T23:01:07.309Z,71.20
2017-05-30T23:03:34.678Z,71.40
2017-05-30T23:06:01.974Z,71.70
2017-05-30T23:08:29.277Z,71.80
2017-05-30T23:10:56.618Z,70.90
2017-05-30T23:13:23.954Z,70.90
2017-05-30T23:15:51.250Z,71.10
2017-05-30T23:18:18.587Z,71.20
2017-05-30T23:20:45.915Z,70.50
2017-05-30T23:23:13.206Z,70.70
2017-05-30T23:25:40.537Z,70.70
2017-05-30T23:28:07.885Z,71.30
2017-05-30T23:30:35.166Z,71.20
2017-05-30T23:33:02.526Z,71.30
2017-05-30T23:35:29.853Z,69.70
2017-05-30T23:37:56.798Z,69.70
2017-05-30T23:40:24.161Z,70.50
2017-05-30T23:42:51.441Z,71.00
2017-05-30T23:45:18.758Z,71.50
2017-05-30T23:47:46.078Z,71.00
2017-05-30T23:50:13.474Z,71.10
2017-05-30T23:52:40.822Z,72.40
2017-05-30T23:55:08.144Z,72.10
2017-05-30T23:57:35.540Z,72.00
